Time;durP1;ratioP1;P1;durP2;ratioP2;P2;SDS_P1;SDS_P2;PMS_P1;PMS_P2;Temp;Humidity;BMP_temperature;BMP_pressure;BME280_temperature;BME280_humidity;BME280_pressure;Samples;Min_cycle;Max_cycle;Signal;HPM_P1;HPM_P2
2021/05/04 00:00:21;;;;;;;24.63;23.13;;;;;;;;;;5055877;28;20456;-88
2021/05/04 00:02:48;;;;;;;25.73;23.30;;;;;;;;;;5073404;28;20782;-88
2021/05/04 00:05:15;;;;;;;25.57;23.97;;;;;;;;;;5058933;28;20456;-88
2021/05/04 00:07:42;;;;;;;25.17;23.67;;;;;;;;;;5077447;28;20485;-88
2021/05/04 00:10:10;;;;;;;25.33;23.83;;;;;;;;;;5077477;28;20441;-88
2021/05/04 00:12:37;;;;;;;25.20;23.60;;;;;;;;;;5077351;28;20429;-88
2021/05/04 00:15:05;;;;;;;23.87;22.27;;;;;;;;;;5077306;28;20441;-88
2021/05/04 00:17:32;;;;;;;25.47;23.80;;;;;;;;;;5077527;28;20408;-88
2021/05/04 00:20:00;;;;;;;24.33;22.60;;;;;;;;;;5077534;28;20429;-88
2021/05/04 00:22:26;;;;;;;24.00;22.70;;;;;;;;;;5077112;28;20800;-88
2021/05/04 00:24:53;;;;;;;25.33;23.40;;;;;;;;;;5077044;28;20416;-87
2021/05/04 00:27:20;;;;;;;24.70;23.17;;;;;;;;;;5076942;28;20464;-88
2021/05/04 00:29:47;;;;;;;24.33;22.73;;;;;;;;;;5076729;28;20412;-88
2021/05/04 00:32:14;;;;;;;25.13;23.60;;;;;;;;;;5076843;28;20433;-87
2021/05/04 00:34:41;;;;;;;25.53;23.73;;;;;;;;;;5076399;28;20438;-87
2021/05/04 00:37:09;;;;;;;25.40;23.67;;;;;;;;;;5076925;28;20488;-88
2021/05/04 00:39:37;;;;;;;25.40;23.80;;;;;;;;;;5077230;28;20768;-88
2021/05/04 00:42:05;;;;;;;25.00;23.50;;;;;;;;;;5077713;28;20441;-88
2021/05/04 00:44:32;;;;;;;23.77;22.40;;;;;;;;;;5077305;28;20804;-88
2021/05/04 00:46:59;;;;;;;23.93;22.53;;;;;;;;;;5077054;28;20814;-88
2021/05/04 00:49:26;;;;;;;26.77;25.07;;;;;;;;;;5076583;28;20442;-87
2021/05/04 00:51:55;;;;;;;24.30;22.90;;;;;;;;;;5076617;28;20470;-88
2021/05/04 00:54:24;;;;;;;25.10;23.50;;;;;;;;;;5076824;28;20401;-88
2021/05/04 00:56:53;;;;;;;25.10;23.60;;;;;;;;;;5059275;28;20415;-88
2021/05/04 00:59:21;;;;;;;24.30;22.80;;;;;;;;;;5077046;28;20436;-88
2021/05/04 01:01:48;;;;;;;24.47;23.07;;;;;;;;;;5076525;28;20444;-88
2021/05/04 01:04:15;;;;;;;24.50;22.87;;;;;;;;;;5076714;28;20450;-88
2021/05/04 01:06:42;;;;;;;24.57;22.87;;;;;;;;;;5059040;28;20523;-88
2021/05/04 01:09:08;;;;;;;24.33;22.93;;;;;;;;;;5076020;28;20874;-88
2021/05/04 01:11:36;;;;;;;24.37;22.97;;;;;;;;;;5076643;28;20809;-89
2021/05/04 01:14:03;;;;;;;25.03;23.50;;;;;;;;;;5076621;28;20521;-88
2021/05/04 01:16:30;;;;;;;24.33;22.83;;;;;;;;;;5074803;28;20431;-88
2021/05/04 01:18:57;;;;;;;24.97;23.47;;;;;;;;;;5076023;28;20413;-88
2021/05/04 01:21:25;;;;;;;24.67;23.30;;;;;;;;;;5058442;28;21006;-88
2021/05/04 01:23:52;;;;;;;23.53;22.13;;;;;;;;;;5076474;28;20420;-88
2021/05/04 01:26:19;;;;;;;23.73;22.17;;;;;;;;;;5076213;28;20473;-88
2021/05/04 01:28:46;;;;;;;24.03;22.63;;;;;;;;;;5075832;28;20412;-88
2021/05/04 01:31:12;;;;;;;23.80;22.30;;;;;;;;;;5076002;28;20441;-88
2021/05/04 01:33:39;;;;;;;22.77;21.47;;;;;;;;;;5076154;28;20413;-87
2021/05/04 01:36:07;;;;;;;23.27;21.87;;;;;;;;;;5075737;28;20405;-88
2021/05/04 01:38:34;;;;;;;24.10;22.67;;;;;;;;;;5075458;28;20466;-88
2021/05/04 01:41:01;;;;;;;24.87;23.17;;;;;;;;;;5058727;28;20456;-88
2021/05/04 01:43:28;;;;;;;23.73;22.20;;;;;;;;;;5075244;28;20461;-88
2021/05/04 01:46:00;;;;;;;23.80;22.40;;;;;;;;;;5076009;28;20456;-88
2021/05/04 01:48:27;;;;;;;23.47;22.07;;;;;;;;;;5076092;28;20443;-88
2021/05/04 01:50:54;;;;;;;23.50;22.10;;;;;;;;;;5075922;28;20773;-87
2021/05/04 01:53:20;;;;;;;24.00;22.57;;;;;;;;;;5075422;28;20433;-89
2021/05/04 01:55:48;;;;;;;23.40;21.90;;;;;;;;;;5057552;28;20450;-89
2021/05/04 01:58:17;;;;;;;22.50;21.10;;;;;;;;;;5075325;28;20453;-89
2021/05/04 02:00:44;;;;;;;23.53;22.13;;;;;;;;;;5074970;28;20426;-89
2021/05/04 02:03:11;;;;;;;23.57;22.17;;;;;;;;;;5075215;28;20408;-88
2021/05/04 02:05:38;;;;;;;23.77;22.17;;;;;;;;;;5057316;28;20429;-88
2021/05/04 02:08:05;;;;;;;23.50;22.20;;;;;;;;;;5075141;28;20423;-89
2021/05/04 02:10:32;;;;;;;22.67;21.40;;;;;;;;;;5075012;28;20913;-88
2021/05/04 02:13:00;;;;;;;24.13;22.70;;;;;;;;;;5074804;28;20434;-88
2021/05/04 02:15:27;;;;;;;23.67;22.30;;;;;;;;;;5075183;28;20434;-88
2021/05/04 02:17:53;;;;;;;23.30;21.80;;;;;;;;;;5074893;28;20415;-89
2021/05/04 02:20:20;;;;;;;23.23;21.60;;;;;;;;;;5074956;28;20456;-89
2021/05/04 02:22:47;;;;;;;23.40;22.10;;;;;;;;;;5074836;28;20442;-88
2021/05/04 02:25:15;;;;;;;24.10;22.70;;;;;;;;;;5074679;28;20404;-89
2021/05/04 02:27:42;;;;;;;23.27;21.90;;;;;;;;;;5074600;28;20470;-88
2021/05/04 02:30:10;;;;;;;23.50;22.10;;;;;;;;;;5057368;28;20443;-87
2021/05/04 02:32:37;;;;;;;22.87;21.53;;;;;;;;;;5074087;28;20457;-87
2021/05/04 02:35:04;;;;;;;23.33;21.93;;;;;;;;;;5074450;28;20439;-87
2021/05/04 02:37:32;;;;;;;23.30;22.00;;;;;;;;;;5074665;28;20991;-87
2021/05/04 02:39:59;;;;;;;23.13;21.63;;;;;;;;;;5074458;28;20445;-86
2021/05/04 02:42:26;;;;;;;22.90;21.53;;;;;;;;;;5056829;28;20441;-87
2021/05/04 02:44:52;;;;;;;22.80;21.50;;;;;;;;;;5074372;28;20417;-86
2021/05/04 02:47:20;;;;;;;22.23;20.80;;;;;;;;;;5074146;28;21001;-87
2021/05/04 02:49:47;;;;;;;23.10;21.30;;;;;;;;;;5074615;28;20442;-87
2021/05/04 02:52:14;;;;;;;23.47;22.07;;;;;;;;;;5057017;28;20444;-87
2021/05/04 02:54:41;;;;;;;22.40;21.20;;;;;;;;;;5074393;28;20441;-87
2021/05/04 02:57:08;;;;;;;21.90;20.67;;;;;;;;;;5074450;28;20412;-87
2021/05/04 02:59:35;;;;;;;22.00;20.80;;;;;;;;;;5074597;28;20434;-87
2021/05/04 03:02:02;;;;;;;21.70;20.50;;;;;;;;;;5074021;28;20433;-88
2021/05/04 03:04:29;;;;;;;22.40;21.00;;;;;;;;;;5074184;28;20477;-87
2021/05/04 03:06:56;;;;;;;22.03;20.83;;;;;;;;;;5074300;28;20467;-88
2021/05/04 03:09:23;;;;;;;21.87;20.57;;;;;;;;;;5074202;28;20463;-87
2021/05/04 03:11:50;;;;;;;22.07;20.67;;;;;;;;;;5056840;28;20412;-87
2021/05/04 03:14:17;;;;;;;21.00;19.90;;;;;;;;;;5074193;28;20409;-87
2021/05/04 03:16:44;;;;;;;22.23;20.93;;;;;;;;;;5074231;28;20411;-87
2021/05/04 03:19:11;;;;;;;21.80;20.47;;;;;;;;;;5074212;28;20431;-87
2021/05/04 03:21:38;;;;;;;22.27;21.07;;;;;;;;;;5074418;28;20466;-88
2021/05/04 03:24:06;;;;;;;22.37;21.07;;;;;;;;;;5074232;28;20801;-87
2021/05/04 03:26:33;;;;;;;22.00;20.60;;;;;;;;;;5056553;28;20455;-87
2021/05/04 03:29:00;;;;;;;21.10;19.90;;;;;;;;;;5073756;28;20446;-88
2021/05/04 03:31:27;;;;;;;21.97;20.50;;;;;;;;;;5073990;28;20412;-87
2021/05/04 03:33:54;;;;;;;22.47;20.93;;;;;;;;;;5074365;28;20408;-87
2021/05/04 03:36:20;;;;;;;22.63;21.27;;;;;;;;;;5073656;28;20438;-87
2021/05/04 03:38:48;;;;;;;22.27;20.73;;;;;;;;;;5073960;28;20513;-87
2021/05/04 03:41:15;;;;;;;22.00;20.50;;;;;;;;;;5060641;28;20420;-87
2021/05/04 03:43:43;;;;;;;23.50;21.57;;;;;;;;;;5077765;28;20408;-87
2021/05/04 03:46:09;;;;;;;22.50;20.93;;;;;;;;;;5077665;28;20475;-89
2021/05/04 03:48:36;;;;;;;21.87;20.67;;;;;;;;;;5077443;28;20445;-87
2021/05/04 03:51:03;;;;;;;22.00;20.50;;;;;;;;;;5077734;28;20424;-88
2021/05/04 03:53:31;;;;;;;22.40;20.90;;;;;;;;;;5077373;28;20409;-87
2021/05/04 03:55:59;;;;;;;23.27;21.57;;;;;;;;;;5077608;28;20846;-88
2021/05/04 03:58:26;;;;;;;21.40;20.10;;;;;;;;;;5077666;28;20416;-87
2021/05/04 04:00:53;;;;;;;22.87;21.47;;;;;;;;;;5077191;28;20413;-87
2021/05/04 04:03:19;;;;;;;22.50;21.30;;;;;;;;;;5077189;28;20465;-88
2021/05/04 04:05:47;;;;;;;22.47;20.90;;;;;;;;;;5077542;28;20430;-87
2021/05/04 04:08:13;;;;;;;22.20;20.90;;;;;;;;;;5077400;28;20452;-87
2021/05/04 04:10:41;;;;;;;21.83;20.73;;;;;;;;;;5077417;28;20413;-87
2021/05/04 04:13:09;;;;;;;22.93;21.60;;;;;;;;;;5077316;28;20471;-86
2021/05/04 04:15:36;;;;;;;22.40;21.20;;;;;;;;;;5077257;28;20464;-87
2021/05/04 04:18:03;;;;;;;22.30;21.00;;;;;;;;;;5077407;28;20582;-88
2021/05/04 04:20:30;;;;;;;21.90;20.60;;;;;;;;;;5076891;28;20419;-87
2021/05/04 04:22:57;;;;;;;21.80;20.57;;;;;;;;;;5077102;28;20433;-87
2021/05/04 04:25:23;;;;;;;22.53;21.23;;;;;;;;;;5076919;28;20473;-86
2021/05/04 04:27:50;;;;;;;21.63;20.47;;;;;;;;;;5077563;28;20458;-87
2021/05/04 04:30:19;;;;;;;23.40;21.60;;;;;;;;;;5059486;28;20419;-87
2021/05/04 04:32:46;;;;;;;22.93;21.73;;;;;;;;;;5076303;28;20431;-87
2021/05/04 04:35:13;;;;;;;22.87;21.53;;;;;;;;;;5076918;28;20506;-88
2021/05/04 04:37:41;;;;;;;22.33;21.00;;;;;;;;;;5076512;28;20466;-88
2021/05/04 04:40:08;;;;;;;21.17;20.00;;;;;;;;;;5059302;28;20404;-88
2021/05/04 04:42:36;;;;;;;22.23;20.83;;;;;;;;;;5076705;28;20438;-87
2021/05/04 04:45:03;;;;;;;22.30;20.97;;;;;;;;;;5076659;28;20412;-87
2021/05/04 04:47:31;;;;;;;21.37;20.10;;;;;;;;;;5076867;28;20477;-87
2021/05/04 04:49:57;;;;;;;20.97;19.67;;;;;;;;;;5076493;28;20413;-86
2021/05/04 04:52:24;;;;;;;20.73;19.53;;;;;;;;;;5075276;28;20408;-86
2021/05/04 04:54:51;;;;;;;21.80;20.50;;;;;;;;;;5058645;28;20858;-86
2021/05/04 04:57:18;;;;;;;21.83;20.33;;;;;;;;;;5076478;28;20433;-87
2021/05/04 04:59:45;;;;;;;20.50;19.27;;;;;;;;;;5076877;28;20430;-87
2021/05/04 05:02:12;;;;;;;20.50;19.40;;;;;;;;;;5076354;28;20441;-87
2021/05/04 05:04:40;;;;;;;21.60;20.30;;;;;;;;;;5076062;28;20450;-87
2021/05/04 05:07:08;;;;;;;19.90;18.80;;;;;;;;;;5076276;28;20509;-88
2021/05/04 05:09:35;;;;;;;21.07;19.57;;;;;;;;;;5076191;28;20441;-87
2021/05/04 05:12:02;;;;;;;22.57;20.50;;;;;;;;;;5058876;28;20445;-87
2021/05/04 05:14:29;;;;;;;20.70;19.60;;;;;;;;;;5076063;28;20415;-87
2021/05/04 05:16:56;;;;;;;20.70;19.50;;;;;;;;;;5076081;28;20425;-87
2021/05/04 05:19:23;;;;;;;20.40;19.27;;;;;;;;;;5076472;28;20469;-86
2021/05/04 05:21:51;;;;;;;20.53;19.13;;;;;;;;;;5075760;28;20415;-87
2021/05/04 05:24:18;;;;;;;20.50;19.40;;;;;;;;;;5076004;28;20416;-86
2021/05/04 05:26:45;;;;;;;21.00;19.57;;;;;;;;;;5075565;28;20449;-86
2021/05/04 05:29:12;;;;;;;20.73;19.53;;;;;;;;;;5076056;28;20397;-87
2021/05/04 05:31:39;;;;;;;20.73;19.63;;;;;;;;;;5076341;28;20445;-87
2021/05/04 05:34:06;;;;;;;20.50;19.40;;;;;;;;;;5075996;28;20449;-87
2021/05/04 05:36:33;;;;;;;20.83;19.63;;;;;;;;;;5075750;28;20438;-87
2021/05/04 05:39:01;;;;;;;21.30;20.13;;;;;;;;;;5075224;28;20444;-87
2021/05/04 05:41:28;;;;;;;21.07;19.87;;;;;;;;;;5057949;28;20419;-87
2021/05/04 05:43:55;;;;;;;20.50;19.33;;;;;;;;;;5075213;28;20443;-87
2021/05/04 05:46:23;;;;;;;21.20;19.90;;;;;;;;;;5075496;28;20451;-87
2021/05/04 05:48:53;;;;;;;20.57;19.37;;;;;;;;;;5075291;28;20453;-86
2021/05/04 05:51:20;;;;;;;21.17;20.03;;;;;;;;;;5075363;28;20431;-87
2021/05/04 05:53:47;;;;;;;21.30;20.20;;;;;;;;;;5075560;28;20538;-87
2021/05/04 05:56:14;;;;;;;20.07;18.97;;;;;;;;;;5075494;28;20434;-87
2021/05/04 05:58:41;;;;;;;19.30;18.30;;;;;;;;;;5075319;28;20484;-87
2021/05/04 06:01:08;;;;;;;20.17;18.97;;;;;;;;;;5074927;28;20461;-87
2021/05/04 06:03:35;;;;;;;20.13;18.83;;;;;;;;;;5074826;28;20408;-86
2021/05/04 06:06:02;;;;;;;20.97;19.57;;;;;;;;;;5074875;28;20504;-87
2021/05/04 06:08:29;;;;;;;19.77;18.77;;;;;;;;;;5075053;28;20408;-87
2021/05/04 06:10:55;;;;;;;20.20;19.10;;;;;;;;;;5074672;28;20961;-86
2021/05/04 06:13:23;;;;;;;20.53;19.33;;;;;;;;;;5057320;28;20441;-86
2021/05/04 06:15:50;;;;;;;20.00;18.80;;;;;;;;;;5075015;28;20445;-87
2021/05/04 06:18:17;;;;;;;20.20;19.20;;;;;;;;;;5075227;28;20446;-88
2021/05/04 06:20:44;;;;;;;19.80;18.80;;;;;;;;;;5074634;28;20422;-88
2021/05/04 06:23:11;;;;;;;20.70;19.70;;;;;;;;;;5075426;28;20469;-88
2021/05/04 06:25:38;;;;;;;19.50;18.50;;;;;;;;;;5074872;28;20448;-88
2021/05/04 06:28:06;;;;;;;21.07;19.93;;;;;;;;;;5074524;28;20439;-87
2021/05/04 06:30:35;;;;;;;20.70;19.60;;;;;;;;;;5074729;28;20423;-88
2021/05/04 06:33:03;;;;;;;20.00;19.00;;;;;;;;;;5074268;28;20491;-88
2021/05/04 06:35:30;;;;;;;22.03;20.93;;;;;;;;;;5074657;28;20414;-88
2021/05/04 06:37:57;;;;;;;20.30;19.20;;;;;;;;;;5074527;28;20812;-88
2021/05/04 06:40:24;;;;;;;20.53;19.43;;;;;;;;;;5056793;28;20419;-88
2021/05/04 06:42:51;;;;;;;21.23;19.93;;;;;;;;;;5075969;28;20430;-87
2021/05/04 06:45:18;;;;;;;20.93;19.83;;;;;;;;;;5059117;28;20750;-88
2021/05/04 06:47:46;;;;;;;22.00;20.60;;;;;;;;;;5058378;28;20484;-87
2021/05/04 06:50:13;;;;;;;21.00;19.83;;;;;;;;;;5074760;28;20438;-88
2021/05/04 06:52:40;;;;;;;20.80;19.60;;;;;;;;;;5074754;28;20486;-86
2021/05/04 06:55:07;;;;;;;20.20;19.10;;;;;;;;;;5074365;28;20427;-86
2021/05/04 06:57:34;;;;;;;19.90;18.90;;;;;;;;;;5074423;28;20401;-87
2021/05/04 07:00:01;;;;;;;20.83;19.73;;;;;;;;;;5057199;28;20428;-87
2021/05/04 07:02:28;;;;;;;21.63;20.43;;;;;;;;;;5074152;28;20490;-85
2021/05/04 07:04:56;;;;;;;20.40;19.30;;;;;;;;;;5074425;28;20434;-86
2021/05/04 07:07:23;;;;;;;20.33;19.23;;;;;;;;;;5074952;28;20452;-87
2021/05/04 07:09:50;;;;;;;20.00;18.80;;;;;;;;;;5074397;28;20437;-87
2021/05/04 07:12:16;;;;;;;22.23;21.13;;;;;;;;;;5056682;28;20444;-87
2021/05/04 07:14:43;;;;;;;19.53;18.53;;;;;;;;;;5076109;28;20441;-87
2021/05/04 07:17:10;;;;;;;19.73;18.50;;;;;;;;;;5078353;28;20426;-88
2021/05/04 07:19:39;;;;;;;20.53;19.43;;;;;;;;;;5060230;28;20470;-87
2021/05/04 07:22:09;;;;;;;20.37;19.27;;;;;;;;;;5078122;28;20463;-87
2021/05/04 07:24:36;;;;;;;20.43;19.33;;;;;;;;;;5078288;28;20439;-87
2021/05/04 07:27:05;;;;;;;20.27;19.17;;;;;;;;;;5077957;28;20462;-90
2021/05/04 07:29:32;;;;;;;19.90;18.90;;;;;;;;;;5078745;28;20423;-90
2021/05/04 07:31:59;;;;;;;20.70;19.60;;;;;;;;;;5078828;28;20434;-89
2021/05/04 07:34:26;;;;;;;19.53;18.30;;;;;;;;;;5078820;28;20759;-90
2021/05/04 07:36:53;;;;;;;20.20;19.10;;;;;;;;;;5077861;28;20451;-91
2021/05/04 07:39:21;;;;;;;28.17;26.47;;;;;;;;;;5078262;28;21034;-90
2021/05/04 07:41:48;;;;;;;24.90;23.17;;;;;;;;;;5078584;28;20416;-91
2021/05/04 07:44:15;;;;;;;25.00;23.60;;;;;;;;;;5078730;28;20462;-89
2021/05/04 07:46:42;;;;;;;28.47;26.80;;;;;;;;;;5080047;28;20818;-89
2021/05/04 07:49:12;;;;;;;26.50;24.47;;;;;;;;;;5079785;28;20469;-91
2021/05/04 07:51:39;;;;;;;22.00;20.70;;;;;;;;;;5079889;28;20449;-90
2021/05/04 07:54:06;;;;;;;20.70;19.60;;;;;;;;;;5079206;28;20426;-90
2021/05/04 07:56:34;;;;;;;21.83;20.63;;;;;;;;;;5079050;28;20416;-91
2021/05/04 07:59:01;;;;;;;20.53;19.43;;;;;;;;;;5078802;28;20429;-89
2021/05/04 08:01:28;;;;;;;23.53;21.93;;;;;;;;;;5078195;28;20410;-89
2021/05/04 08:03:55;;;;;;;21.63;20.50;;;;;;;;;;5078632;28;20454;-89
2021/05/04 08:06:22;;;;;;;20.10;19.10;;;;;;;;;;5078155;28;20511;-89
2021/05/04 08:08:49;;;;;;;19.33;18.33;;;;;;;;;;5077777;28;20417;-90
2021/05/04 08:11:16;;;;;;;23.13;21.63;;;;;;;;;;5078031;28;20427;-89
2021/05/04 08:13:44;;;;;;;19.90;18.90;;;;;;;;;;5060311;28;20423;-89
2021/05/04 08:16:13;;;;;;;20.20;19.10;;;;;;;;;;5077958;28;20468;-89
2021/05/04 08:18:42;;;;;;;24.43;22.93;;;;;;;;;;5077351;28;20411;-86
2021/05/04 08:21:09;;;;;;;24.50;23.20;;;;;;;;;;5078954;28;20940;-94
2021/05/04 08:23:36;;;;;;;20.83;19.77;;;;;;;;;;5063087;28;20417;-93
2021/05/04 08:26:03;;;;;;;20.50;19.40;;;;;;;;;;5081269;28;20417;-93
2021/05/04 08:28:30;;;;;;;22.10;20.90;;;;;;;;;;5085089;28;20455;-88
2021/05/04 08:30:58;;;;;;;20.67;19.57;;;;;;;;;;5080679;28;20457;-91
2021/05/04 08:33:25;;;;;;;21.50;20.10;;;;;;;;;;5090335;28;20431;-90
2021/05/04 08:35:52;;;;;;;20.83;19.50;;;;;;;;;;5084077;28;20886;-90
2021/05/04 08:38:19;;;;;;;20.13;19.13;;;;;;;;;;5095247;28;20455;-91
2021/05/04 08:40:46;;;;;;;20.63;19.27;;;;;;;;;;5098826;28;20838;-90
2021/05/04 08:43:13;;;;;;;20.83;19.50;;;;;;;;;;5081758;28;20429;-89
2021/05/04 08:45:42;;;;;;;21.20;19.80;;;;;;;;;;5096953;28;20907;-85
2021/05/04 08:48:14;;;;;;;20.37;19.30;;;;;;;;;;5096919;28;20484;-85
2021/05/04 08:50:41;;;;;;;20.47;19.47;;;;;;;;;;5098770;28;20404;-91
2021/05/04 08:53:08;;;;;;;20.83;19.63;;;;;;;;;;5098373;28;20437;-91
2021/05/04 08:55:35;;;;;;;19.63;18.53;;;;;;;;;;5098175;28;20408;-91
2021/05/04 08:58:02;;;;;;;19.63;18.63;;;;;;;;;;5097606;28;20433;-91
2021/05/04 09:00:28;;;;;;;20.53;18.70;;;;;;;;;;5097687;28;20437;-89
2021/05/04 09:03:01;;;;;;;20.50;19.40;;;;;;;;;;5097168;28;20431;-81
2021/05/04 09:05:37;;;;;;;21.30;20.20;;;;;;;;;;5095735;28;20473;-82
2021/05/04 09:08:08;;;;;;;20.10;19.10;;;;;;;;;;5095803;28;20971;-80
2021/05/04 09:10:40;;;;;;;20.47;19.37;;;;;;;;;;5062419;28;20962;-80
2021/05/04 09:13:16;;;;;;;19.83;18.83;;;;;;;;;;5096022;28;20441;-80
2021/05/04 09:21:31;;;;;;;20.47;19.17;;;;;;;;;;5093667;28;20442;-81
2021/05/04 09:23:58;;;;;;;21.43;19.80;;;;;;;;;;5095248;28;20909;-81
2021/05/04 09:26:31;;;;;;;20.10;18.63;;;;;;;;;;5077465;28;20415;-83
2021/05/04 09:28:58;;;;;;;20.23;19.23;;;;;;;;;;5095227;28;20444;-81
2021/05/04 09:31:26;;;;;;;19.70;18.70;;;;;;;;;;5095058;28;20909;-81
2021/05/04 09:33:53;;;;;;;20.23;19.10;;;;;;;;;;5095229;28;20483;-81
2021/05/04 09:36:45;;;;;;;20.33;19.33;;;;;;;;;;5095123;28;20458;-81
2021/05/04 09:39:14;;;;;;;19.77;18.70;;;;;;;;;;5094809;28;20499;-82
2021/05/04 09:41:41;;;;;;;20.17;19.17;;;;;;;;;;5095231;28;20444;-82
2021/05/04 09:44:08;;;;;;;19.80;18.80;;;;;;;;;;5094969;28;20785;-80
2021/05/04 09:46:44;;;;;;;20.23;19.00;;;;;;;;;;5095120;28;20425;-82
2021/05/04 09:49:27;;;;;;;20.00;19.00;;;;;;;;;;5077459;28;20772;-80
2021/05/04 09:52:16;;;;;;;20.57;19.57;;;;;;;;;;5094755;28;20907;-81
2021/05/04 09:54:43;;;;;;;20.17;19.00;;;;;;;;;;5095236;28;20440;-81
2021/05/04 09:57:24;;;;;;;20.87;19.77;;;;;;;;;;5094839;28;20404;-82
2021/05/04 09:59:51;;;;;;;20.13;19.13;;;;;;;;;;5094527;28;20443;-82
2021/05/04 10:02:18;;;;;;;20.07;18.90;;;;;;;;;;5094878;28;20897;-82
2021/05/04 10:04:45;;;;;;;20.00;18.97;;;;;;;;;;5094938;28;20420;-81
2021/05/04 10:07:13;;;;;;;21.00;19.80;;;;;;;;;;5076681;28;20477;-83
2021/05/04 10:09:40;;;;;;;20.70;19.30;;;;;;;;;;5094556;28;20408;-81
2021/05/04 10:12:07;;;;;;;19.50;18.50;;;;;;;;;;5094248;28;20768;-82
2021/05/04 10:14:35;;;;;;;20.20;19.10;;;;;;;;;;5094295;28;20419;-81
2021/05/04 10:17:02;;;;;;;20.40;19.30;;;;;;;;;;5094773;28;20433;-82
2021/05/04 10:19:29;;;;;;;21.17;19.97;;;;;;;;;;5094306;28;20429;-82
2021/05/04 10:21:57;;;;;;;20.20;18.93;;;;;;;;;;5094411;28;20512;-82
2021/05/04 10:24:25;;;;;;;21.97;20.67;;;;;;;;;;5094440;28;20434;-82
2021/05/04 10:26:52;;;;;;;23.03;21.47;;;;;;;;;;5094498;28;20497;-81
2021/05/04 10:29:23;;;;;;;25.93;21.53;;;;;;;;;;5094494;28;20441;-82
2021/05/04 10:31:51;;;;;;;20.80;19.67;;;;;;;;;;5074985;28;20423;-80
2021/05/04 10:34:28;;;;;;;76.97;70.80;;;;;;;;;;5094360;28;20419;-82
2021/05/04 10:36:56;;;;;;;20.77;19.50;;;;;;;;;;5093944;28;20476;-81
2021/05/04 10:39:34;;;;;;;20.87;19.63;;;;;;;;;;5072628;28;20470;-82
2021/05/04 10:42:02;;;;;;;29.17;27.37;;;;;;;;;;5073686;28;20431;-81
2021/05/04 10:44:29;;;;;;;21.80;20.70;;;;;;;;;;5072491;28;20927;-80
2021/05/04 10:46:57;;;;;;;22.40;21.10;;;;;;;;;;5073426;28;20473;-80
2021/05/04 10:49:39;;;;;;;21.90;20.80;;;;;;;;;;5073878;28;20643;-81
2021/05/04 10:52:06;;;;;;;23.00;21.70;;;;;;;;;;5073452;28;20428;-80
2021/05/04 10:54:53;;;;;;;19.97;18.90;;;;;;;;;;5073944;28;20415;-82
2021/05/04 10:57:20;;;;;;;22.47;21.17;;;;;;;;;;5073547;28;20443;-82
2021/05/04 10:59:49;;;;;;;22.03;20.60;;;;;;;;;;5073510;28;20442;-82
2021/05/04 11:02:30;;;;;;;19.60;18.53;;;;;;;;;;5072958;28;20860;-82
2021/05/04 11:04:58;;;;;;;19.50;18.50;;;;;;;;;;5074055;28;20449;-90
2021/05/04 11:07:44;;;;;;;23.60;22.20;;;;;;;;;;5072909;28;20497;-84
2021/05/04 11:10:12;;;;;;;29.10;27.30;;;;;;;;;;5073692;28;20812;-80
2021/05/04 11:12:39;;;;;;;29.90;28.10;;;;;;;;;;5073745;28;20790;-80
2021/05/04 11:15:19;;;;;;;20.37;19.37;;;;;;;;;;5072242;28;20412;-80
2021/05/04 11:17:46;;;;;;;20.00;18.90;;;;;;;;;;5073508;28;20491;-80
2021/05/04 11:20:32;;;;;;;32.50;30.10;;;;;;;;;;5073728;28;20404;-81
2021/05/04 11:22:59;;;;;;;46.50;42.53;;;;;;;;;;5073616;28;20511;-81
2021/05/04 11:25:34;;;;;;;20.47;19.37;;;;;;;;;;5073645;28;20756;-81
2021/05/04 11:28:01;;;;;;;21.17;19.73;;;;;;;;;;5073527;28;20455;-81
2021/05/04 11:30:31;;;;;;;55.70;51.63;;;;;;;;;;5073245;28;20433;-80
2021/05/04 11:32:59;;;;;;;25.03;23.33;;;;;;;;;;5073401;28;20408;-80
2021/05/04 11:35:36;;;;;;;23.50;22.10;;;;;;;;;;5073682;28;20507;-81
2021/05/04 11:38:03;;;;;;;21.57;20.37;;;;;;;;;;5072150;28;20526;-81
2021/05/04 11:40:30;;;;;;;27.10;25.10;;;;;;;;;;5073177;28;20483;-81
2021/05/04 11:43:00;;;;;;;20.73;19.63;;;;;;;;;;5073276;28;20405;-82
2021/05/04 11:45:29;;;;;;;21.43;20.23;;;;;;;;;;5073370;28;20423;-81
2021/05/04 11:47:56;;;;;;;20.80;19.70;;;;;;;;;;5073249;28;20460;-81
2021/05/04 11:50:24;;;;;;;20.63;19.53;;;;;;;;;;5073139;28;20412;-81
2021/05/04 11:52:54;;;;;;;21.37;20.17;;;;;;;;;;5073013;28;20432;-82
2021/05/04 11:55:22;;;;;;;20.60;19.20;;;;;;;;;;5073127;28;20432;-81
2021/05/04 11:57:50;;;;;;;23.30;22.20;;;;;;;;;;5073054;28;20433;-79
2021/05/04 12:00:20;;;;;;;46.13;43.80;;;;;;;;;;5073798;28;20416;-80
2021/05/04 12:02:47;;;;;;;45.87;43.57;;;;;;;;;;5076762;28;20449;-80
2021/05/04 12:05:16;;;;;;;46.17;43.67;;;;;;;;;;5076679;28;20416;-79
2021/05/04 12:07:44;;;;;;;43.60;41.40;;;;;;;;;;5076779;28;20541;-79
2021/05/04 12:10:25;;;;;;;40.13;38.23;;;;;;;;;;5076459;28;20464;-79
2021/05/04 12:12:53;;;;;;;36.00;34.23;;;;;;;;;;5076732;28;20411;-80
2021/05/04 12:15:22;;;;;;;29.73;28.03;;;;;;;;;;5076678;28;20798;-80
2021/05/04 12:18:14;;;;;;;20.90;19.70;;;;;;;;;;5076297;28;20444;-80
2021/05/04 12:20:42;;;;;;;17.60;16.60;;;;;;;;;;5076611;28;20495;-81
2021/05/04 12:23:11;;;;;;;19.57;18.00;;;;;;;;;;5076281;28;20905;-81
2021/05/04 12:25:40;;;;;;;18.90;18.00;;;;;;;;;;5076460;28;20420;-80
2021/05/04 12:28:07;;;;;;;17.50;16.67;;;;;;;;;;5075082;28;20481;-81
2021/05/04 12:30:35;;;;;;;20.87;19.40;;;;;;;;;;5076129;28;20412;-80
2021/05/04 12:33:02;;;;;;;19.60;18.37;;;;;;;;;;5076215;28;20962;-79
2021/05/04 12:35:31;;;;;;;20.90;19.50;;;;;;;;;;5076111;28;20429;-81
2021/05/04 12:38:09;;;;;;;21.37;20.03;;;;;;;;;;5082788;28;20512;-80
2021/05/04 12:40:38;;;;;;;21.47;20.17;;;;;;;;;;5096060;28;20425;-80
2021/05/04 12:43:15;;;;;;;22.50;21.03;;;;;;;;;;5078388;28;20427;-80
2021/05/04 12:46:03;;;;;;;24.80;22.50;;;;;;;;;;5078523;28;20411;-81
2021/05/04 12:48:31;;;;;;;22.97;21.33;;;;;;;;;;5096064;28;20483;-80
2021/05/04 12:51:02;;;;;;;22.70;21.27;;;;;;;;;;5095780;28;20427;-80
2021/05/04 12:53:33;;;;;;;23.17;21.50;;;;;;;;;;5096204;28;20460;-80
2021/05/04 12:56:00;;;;;;;22.33;21.03;;;;;;;;;;5096079;28;20441;-80
2021/05/04 12:58:27;;;;;;;22.60;21.30;;;;;;;;;;5095951;28;20429;-80
2021/05/04 13:01:12;;;;;;;22.47;20.97;;;;;;;;;;5094586;28;20511;-80
2021/05/04 13:03:47;;;;;;;23.77;22.17;;;;;;;;;;5095479;28;20444;-80
2021/05/04 13:06:18;;;;;;;22.67;21.37;;;;;;;;;;5095475;28;20505;-81
2021/05/04 13:08:59;;;;;;;22.33;20.93;;;;;;;;;;5095278;28;20476;-81
2021/05/04 13:11:44;;;;;;;24.53;22.43;;;;;;;;;;5094471;28;20813;-80
2021/05/04 13:14:29;;;;;;;22.50;21.10;;;;;;;;;;5095529;28;20498;-80
2021/05/04 13:28:26;;;;;;;21.87;20.37;;;;;;;;;;5098733;28;20480;-89
2021/05/04 13:30:54;;;;;;;22.90;21.33;;;;;;;;;;5097786;28;20444;-85
2021/05/04 13:33:22;;;;;;;22.10;20.80;;;;;;;;;;5079097;28;20510;-80
2021/05/04 13:35:55;;;;;;;23.53;22.03;;;;;;;;;;5077073;28;20448;-83
2021/05/04 13:38:32;;;;;;;22.37;20.97;;;;;;;;;;5095430;28;20458;-81
2021/05/04 13:49:15;;;;;;;22.17;20.93;;;;;;;;;;5080631;28;20417;-82
2021/05/04 13:51:42;;;;;;;21.97;20.40;;;;;;;;;;5049647;28;20429;-81
2021/05/04 13:54:09;;;;;;;22.63;21.13;;;;;;;;;;5077369;28;20434;-86
2021/05/04 13:56:36;;;;;;;22.00;20.80;;;;;;;;;;5074555;28;20453;-81
2021/05/04 13:59:03;;;;;;;23.97;22.13;;;;;;;;;;5074422;28;20943;-80
2021/05/04 14:01:34;;;;;;;23.47;21.53;;;;;;;;;;5074570;28;20878;-80
2021/05/04 14:04:15;;;;;;;23.60;21.90;;;;;;;;;;5074429;28;20481;-81
2021/05/04 14:07:01;;;;;;;22.53;21.10;;;;;;;;;;5074617;28;20441;-80
2021/05/04 14:15:30;;;;;;;23.20;21.53;;;;;;;;;;5074731;28;20449;-80
2021/05/04 14:26:19;;;;;;;23.63;22.13;;;;;;;;;;5074335;28;20425;-80
2021/05/04 14:28:46;;;;;;;24.00;22.10;;;;;;;;;;5073556;28;20576;-80
2021/05/04 14:31:13;;;;;;;54.63;51.53;;;;;;;;;;5074195;28;20438;-79
2021/05/04 14:33:40;;;;;;;58.07;54.43;;;;;;;;;;5073574;28;20461;-79
2021/05/04 14:36:26;;;;;;;57.37;54.00;;;;;;;;;;5073840;28;20481;-79
2021/05/04 14:38:56;;;;;;;51.23;48.03;;;;;;;;;;5052666;28;20521;-80
2021/05/04 14:55:53;;;;;;;35.80;33.63;;;;;;;;;;5055120;28;20443;-80
2021/05/04 14:58:44;;;;;;;25.77;24.17;;;;;;;;;;5054723;28;20417;-81
2021/05/04 15:01:19;;;;;;;29.83;28.13;;;;;;;;;;5054596;28;20446;-79
2021/05/04 15:03:46;;;;;;;27.33;25.60;;;;;;;;;;5054636;28;20466;-80
2021/05/04 15:06:13;;;;;;;23.90;21.63;;;;;;;;;;5055126;28;20458;-81
2021/05/04 15:08:40;;;;;;;24.87;23.47;;;;;;;;;;5053631;28;20549;-80
2021/05/04 15:11:08;;;;;;;24.13;22.57;;;;;;;;;;5054338;28;20460;-80
2021/05/04 15:13:37;;;;;;;24.63;23.03;;;;;;;;;;5054990;28;20458;-80
2021/05/04 15:21:50;;;;;;;24.30;22.80;;;;;;;;;;5054550;28;20919;-80
2021/05/04 15:24:17;;;;;;;23.83;22.33;;;;;;;;;;5054279;28;20448;-80